sensor_id;sensor_type;location;lat;lon;timestamp;pressure;altitude;pressure_sealevel;temperature;humidity
65359;BME280;52491;45.900;6.346;2023-03-01T00:02:02;93839.78;;;22.99;20.39
65359;BME280;52491;45.900;6.346;2023-03-01T00:04:28;93838.16;;;22.98;20.39
65359;BME280;52491;45.900;6.346;2023-03-01T00:06:54;93840.81;;;22.98;20.20
65359;BME280;52491;45.900;6.346;2023-03-01T00:09:19;93844.53;;;22.97;20.36
65359;BME280;52491;45.900;6.346;2023-03-01T00:11:45;93842.91;;;22.96;20.25
65359;BME280;52491;45.900;6.346;2023-03-01T00:14:11;93840.50;;;22.95;20.38
65359;BME280;52491;45.900;6.346;2023-03-01T00:16:40;93843.16;;;22.95;20.18
65359;BME280;52491;45.900;6.346;2023-03-01T00:19:12;93835.41;;;22.93;20.30
65359;BME280;52491;45.900;6.346;2023-03-01T00:21:38;93844.47;;;22.92;20.24
65359;BME280;52491;45.900;6.346;2023-03-01T00:24:04;93835.94;;;22.90;20.26
65359;BME280;52491;45.900;6.346;2023-03-01T00:26:30;93841.50;;;22.89;20.20
65359;BME280;52491;45.900;6.346;2023-03-01T00:28:57;93832.75;;;22.88;20.25
65359;BME280;52491;45.900;6.346;2023-03-01T00:31:28;93829.53;;;22.86;20.14
65359;BME280;52491;45.900;6.346;2023-03-01T00:33:59;93826.06;;;22.86;20.17
65359;BME280;52491;45.900;6.346;2023-03-01T00:36:28;93837.50;;;22.86;20.20
65359;BME280;52491;45.900;6.346;2023-03-01T00:38:54;93836.94;;;22.84;20.20
65359;BME280;52491;45.900;6.346;2023-03-01T00:41:20;93841.19;;;22.85;20.17
65359;BME280;52491;45.900;6.346;2023-03-01T00:43:48;93840.66;;;22.83;20.12
65359;BME280;52491;45.900;6.346;2023-03-01T00:46:16;93838.00;;;22.83;20.10
65359;BME280;52491;45.900;6.346;2023-03-01T00:48:42;93838.25;;;22.82;20.25
65359;BME280;52491;45.900;6.346;2023-03-01T00:51:17;93840.91;;;22.82;20.10
65359;BME280;52491;45.900;6.346;2023-03-01T00:53:43;93838.53;;;22.80;20.18
65359;BME280;52491;45.900;6.346;2023-03-01T00:56:11;93834.50;;;22.77;20.06
65359;BME280;52491;45.900;6.346;2023-03-01T00:58:37;93831.06;;;22.77;20.10
65359;BME280;52491;45.900;6.346;2023-03-01T01:01:10;93823.88;;;22.77;20.08
65359;BME280;52491;45.900;6.346;2023-03-01T01:03:56;93826.78;;;22.76;20.05
65359;BME280;52491;45.900;6.346;2023-03-01T01:06:24;93822.53;;;22.75;20.04
65359;BME280;52491;45.900;6.346;2023-03-01T01:08:51;93823.56;;;22.74;20.06
65359;BME280;52491;45.900;6.346;2023-03-01T01:11:18;93823.56;;;22.74;20.06
65359;BME280;52491;45.900;6.346;2023-03-01T01:13:45;93822.53;;;22.75;20.05
65359;BME280;52491;45.900;6.346;2023-03-01T01:16:12;93817.22;;;22.75;20.18
65359;BME280;52491;45.900;6.346;2023-03-01T01:18:37;93810.28;;;22.74;20.12
65359;BME280;52491;45.900;6.346;2023-03-01T01:21:08;93816.66;;;22.73;20.02
65359;BME280;52491;45.900;6.346;2023-03-01T01:23:35;93815.84;;;22.72;20.08
65359;BME280;52491;45.900;6.346;2023-03-01T01:26:09;93816.09;;;22.71;20.06
65359;BME280;52491;45.900;6.346;2023-03-01T01:28:35;93810.78;;;22.71;20.13
65359;BME280;52491;45.900;6.346;2023-03-01T01:31:01;93803.63;;;22.71;20.02
65359;BME280;52491;45.900;6.346;2023-03-01T01:33:26;93797.50;;;22.71;20.03
65359;BME280;52491;45.900;6.346;2023-03-01T01:35:52;93792.19;;;22.71;20.01
65359;BME280;52491;45.900;6.346;2023-03-01T01:38:18;93786.34;;;22.74;19.95
65359;BME280;52491;45.900;6.346;2023-03-01T01:40:48;93783.69;;;22.74;20.13
65359;BME280;52491;45.900;6.346;2023-03-01T01:45:50;93774.13;;;22.73;20.05
65359;BME280;52491;45.900;6.346;2023-03-01T01:48:20;93778.66;;;22.72;20.03
65359;BME280;52491;45.900;6.346;2023-03-01T01:50:55;93770.41;;;22.74;19.83
65359;BME280;52491;45.900;6.346;2023-03-01T01:53:24;93769.88;;;22.72;20.08
65359;BME280;52491;45.900;6.346;2023-03-01T01:55:54;93763.78;;;22.71;20.11
65359;BME280;52491;45.900;6.346;2023-03-01T01:58:24;93762.44;;;22.74;20.12
65359;BME280;52491;45.900;6.346;2023-03-01T02:00:50;93761.41;;;22.75;20.02
65359;BME280;52491;45.900;6.346;2023-03-01T02:03:20;93763.25;;;22.74;19.96
65359;BME280;52491;45.900;6.346;2023-03-01T02:05:53;93758.19;;;22.73;19.97
65359;BME280;52491;45.900;6.346;2023-03-01T02:08:21;93753.16;;;22.71;20.08
65359;BME280;52491;45.900;6.346;2023-03-01T02:10:49;93752.31;;;22.71;20.02
65359;BME280;52491;45.900;6.346;2023-03-01T02:13:15;93749.16;;;22.74;20.06
65359;BME280;52491;45.900;6.346;2023-03-01T02:15:41;93748.63;;;22.72;20.18
65359;BME280;52491;45.900;6.346;2023-03-01T02:18:11;93744.91;;;22.73;20.05
65359;BME280;52491;45.900;6.346;2023-03-01T02:20:59;93750.78;;;22.75;19.90
65359;BME280;52491;45.900;6.346;2023-03-01T02:23:28;93742.00;;;22.74;19.75
65359;BME280;52491;45.900;6.346;2023-03-01T02:26:05;93737.47;;;22.75;19.90
65359;BME280;52491;45.900;6.346;2023-03-01T02:28:35;93742.78;;;22.75;19.88
65359;BME280;52491;45.900;6.346;2023-03-01T02:31:03;93729.50;;;22.75;19.99
65359;BME280;52491;45.900;6.346;2023-03-01T02:33:48;93730.31;;;22.75;19.87
65359;BME280;52491;45.900;6.346;2023-03-01T02:36:17;93722.09;;;22.77;19.82
65359;BME280;52491;45.900;6.346;2023-03-01T02:38:44;93718.38;;;22.78;19.95
65359;BME280;52491;45.900;6.346;2023-03-01T02:41:11;93713.59;;;22.80;19.89
65359;BME280;52491;45.900;6.346;2023-03-01T02:43:39;93712.78;;;22.79;19.78
65359;BME280;52491;45.900;6.346;2023-03-01T02:46:07;93708.81;;;22.82;19.86
65359;BME280;52491;45.900;6.346;2023-03-01T02:48:46;93709.34;;;22.84;19.76
65359;BME280;52491;45.900;6.346;2023-03-01T02:56:31;93699.84;;;22.88;19.87
65359;BME280;52491;45.900;6.346;2023-03-01T02:58:57;93699.56;;;22.90;19.75
65359;BME280;52491;45.900;6.346;2023-03-01T03:01:27;93692.38;;;22.90;19.81
65359;BME280;52491;45.900;6.346;2023-03-01T03:04:14;93695.59;;;22.92;19.74
65359;BME280;52491;45.900;6.346;2023-03-01T03:06:44;93690.50;;;22.91;19.76
65359;BME280;52491;45.900;6.346;2023-03-01T03:09:10;93690.28;;;22.92;19.78
65359;BME280;52491;45.900;6.346;2023-03-01T03:11:36;93688.97;;;22.95;19.74
65359;BME280;52491;45.900;6.346;2023-03-01T03:14:02;93692.19;;;22.97;19.72
65359;BME280;52491;45.900;6.346;2023-03-01T03:16:27;93693.00;;;22.97;19.75
65359;BME280;52491;45.900;6.346;2023-03-01T03:18:55;93688.47;;;22.98;19.58
65359;BME280;52491;45.900;6.346;2023-03-01T03:21:31;93676.75;;;22.99;19.60
65359;BME280;52491;45.900;6.346;2023-03-01T03:23:56;93668.78;;;22.99;19.58
65359;BME280;52491;45.900;6.346;2023-03-01T03:26:23;93676.75;;;22.99;19.60
65359;BME280;52491;45.900;6.346;2023-03-01T03:28:48;93669.63;;;22.99;19.67
65359;BME280;52491;45.900;6.346;2023-03-01T03:31:14;93674.94;;;22.99;19.75
65359;BME280;52491;45.900;6.346;2023-03-01T03:33:39;93674.09;;;22.99;19.61
65359;BME280;52491;45.900;6.346;2023-03-01T03:36:05;93675.72;;;23.00;19.71
65359;BME280;52491;45.900;6.346;2023-03-01T03:38:31;93668.53;;;23.00;19.75
65359;BME280;52491;45.900;6.346;2023-03-01T03:41:07;93668.53;;;23.00;19.58
65359;BME280;52491;45.900;6.346;2023-03-01T03:43:35;93665.88;;;23.00;19.62
65359;BME280;52491;45.900;6.346;2023-03-01T03:46:02;93660.28;;;22.97;19.70
65359;BME280;52491;45.900;6.346;2023-03-01T03:48:33;93665.09;;;23.00;19.77
65359;BME280;52491;45.900;6.346;2023-03-01T03:50:59;93662.69;;;22.98;19.66
65359;BME280;52491;45.900;6.346;2023-03-01T03:53:26;93665.88;;;23.00;19.71
65359;BME280;52491;45.900;6.346;2023-03-01T03:55:53;93667.75;;;23.00;19.74
65359;BME280;52491;45.900;6.346;2023-03-01T03:58:21;93667.47;;;23.01;19.79
65359;BME280;52491;45.900;6.346;2023-03-01T04:00:50;93672.56;;;23.03;19.78
65359;BME280;52491;45.900;6.346;2023-03-01T04:03:17;93667.22;;;23.03;19.85
65359;BME280;52491;45.900;6.346;2023-03-01T04:05:44;93670.69;;;23.04;19.82
65359;BME280;52491;45.900;6.346;2023-03-01T04:08:10;93663.78;;;23.03;19.83
65359;BME280;52491;45.900;6.346;2023-03-01T04:10:38;93659.25;;;23.03;19.88
65359;BME280;52491;45.900;6.346;2023-03-01T04:13:05;93659.25;;;23.03;19.80
65359;BME280;52491;45.900;6.346;2023-03-01T04:15:32;93658.47;;;23.03;19.85
65359;BME280;52491;45.900;6.346;2023-03-01T04:17:58;93654.97;;;23.02;19.85
65359;BME280;52491;45.900;6.346;2023-03-01T04:20:30;93653.94;;;23.03;19.85
65359;BME280;52491;45.900;6.346;2023-03-01T04:23:18;93656.59;;;23.03;19.91
65359;BME280;52491;45.900;6.346;2023-03-01T04:25:50;93649.94;;;23.00;19.97
65359;BME280;52491;45.900;6.346;2023-03-01T04:30:50;93646.22;;;23.01;19.93
65359;BME280;52491;45.900;6.346;2023-03-01T04:33:16;93642.75;;;23.01;19.91
65359;BME280;52491;45.900;6.346;2023-03-01T04:35:41;93638.22;;;23.01;19.83
65359;BME280;52491;45.900;6.346;2023-03-01T04:38:08;93640.66;;;23.03;19.88
65359;BME280;52491;45.900;6.346;2023-03-01T04:40:34;93647.00;;;23.02;19.77
65359;BME280;52491;45.900;6.346;2023-03-01T04:43:00;93638.78;;;23.04;19.91
65359;BME280;52491;45.900;6.346;2023-03-01T04:50:20;93643.03;;;23.05;19.98
65359;BME280;52491;45.900;6.346;2023-03-01T04:52:48;93643.56;;;23.07;19.82
65359;BME280;52491;45.900;6.346;2023-03-01T04:55:13;93644.38;;;23.07;19.84
65359;BME280;52491;45.900;6.346;2023-03-01T04:57:39;93649.44;;;23.09;19.89
65359;BME280;52491;45.900;6.346;2023-03-01T05:00:07;93640.16;;;23.11;19.75
65359;BME280;52491;45.900;6.346;2023-03-01T05:02:56;93637.75;;;23.10;19.86
65359;BME280;52491;45.900;6.346;2023-03-01T05:05:34;93634.03;;;23.11;19.80
65359;BME280;52491;45.900;6.346;2023-03-01T05:08:04;93633.22;;;23.10;19.76
65359;BME280;52491;45.900;6.346;2023-03-01T05:10:31;93630.03;;;23.08;19.76
65359;BME280;52491;45.900;6.346;2023-03-01T05:12:58;93632.69;;;23.08;19.70
65359;BME280;52491;45.900;6.346;2023-03-01T05:15:25;93634.53;;;23.08;19.87
65359;BME280;52491;45.900;6.346;2023-03-01T05:17:53;93627.38;;;23.08;19.76
65359;BME280;52491;45.900;6.346;2023-03-01T05:20:19;93630.56;;;23.10;19.83
65359;BME280;52491;45.900;6.346;2023-03-01T05:22:48;93631.38;;;23.11;19.77
65359;BME280;52491;45.900;6.346;2023-03-01T05:25:14;93633.22;;;23.10;19.83
65359;BME280;52491;45.900;6.346;2023-03-01T05:27:40;93630.56;;;23.10;19.81
65359;BME280;52491;45.900;6.346;2023-03-01T05:30:06;93625.22;;;23.10;19.78
65359;BME280;52491;45.900;6.346;2023-03-01T05:32:44;93627.91;;;23.10;19.89
65359;BME280;52491;45.900;6.346;2023-03-01T05:35:12;93621.25;;;23.13;19.78
65359;BME280;52491;45.900;6.346;2023-03-01T05:37:42;93633.50;;;23.14;19.77
65359;BME280;52491;45.900;6.346;2023-03-01T05:40:10;93628.44;;;23.12;19.88
65359;BME280;52491;45.900;6.346;2023-03-01T05:42:48;93626.56;;;23.13;19.87
65359;BME280;52491;45.900;6.346;2023-03-01T05:45:15;93620.72;;;23.16;19.79
65359;BME280;52491;45.900;6.346;2023-03-01T05:47:42;93611.44;;;23.18;19.85
65359;BME280;52491;45.900;6.346;2023-03-01T05:50:19;93614.09;;;23.18;19.90
65359;BME280;52491;45.900;6.346;2023-03-01T05:52:47;93612.50;;;23.17;19.92
65359;BME280;52491;45.900;6.346;2023-03-01T05:55:15;93609.84;;;23.17;20.01
65359;BME280;52491;45.900;6.346;2023-03-01T05:57:40;93609.84;;;23.17;20.10
65359;BME280;52491;45.900;6.346;2023-03-01T06:00:07;93607.19;;;23.17;20.03
65359;BME280;52491;45.900;6.346;2023-03-01T06:02:33;93610.41;;;23.19;19.99
65359;BME280;52491;45.900;6.346;2023-03-01T06:04:58;93605.88;;;23.20;20.30
65359;BME280;52491;45.900;6.346;2023-03-01T06:07:24;93608.53;;;23.20;20.27
65359;BME280;52491;45.900;6.346;2023-03-01T06:09:50;93616.50;;;23.20;20.27
65359;BME280;52491;45.900;6.346;2023-03-01T06:12:15;93618.91;;;23.21;20.30
65359;BME280;52491;45.900;6.346;2023-03-01T06:14:41;93616.50;;;23.20;20.32
65359;BME280;52491;45.900;6.346;2023-03-01T06:17:06;93615.44;;;23.21;20.08
65359;BME280;52491;45.900;6.346;2023-03-01T06:19:32;93619.72;;;23.22;20.40
65359;BME280;52491;45.900;6.346;2023-03-01T06:21:57;93618.38;;;23.24;20.26
65359;BME280;52491;45.900;6.346;2023-03-01T06:24:23;93616.25;;;23.27;20.39
65359;BME280;52491;45.900;6.346;2023-03-01T06:26:49;93615.47;;;23.26;20.38
65359;BME280;52491;45.900;6.346;2023-03-01T06:29:15;93611.72;;;23.27;20.39
65359;BME280;52491;45.900;6.346;2023-03-01T06:31:40;93614.38;;;23.27;20.46
65359;BME280;52491;45.900;6.346;2023-03-01T06:34:06;93616.00;;;23.28;20.50
65359;BME280;52491;45.900;6.346;2023-03-01T06:36:31;93611.72;;;23.27;20.53
65359;BME280;52491;45.900;6.346;2023-03-01T06:38:57;93613.34;;;23.28;20.63
65359;BME280;52491;45.900;6.346;2023-03-01T06:41:23;93614.94;;;23.29;20.58
65359;BME280;52491;45.900;6.346;2023-03-01T06:43:48;93613.34;;;23.28;20.78
65359;BME280;52491;45.900;6.346;2023-03-01T06:46:14;93619.47;;;23.29;20.64
65359;BME280;52491;45.900;6.346;2023-03-01T06:48:39;93619.22;;;23.30;20.79
65359;BME280;52491;45.900;6.346;2023-03-01T06:51:05;93621.03;;;23.30;20.68
65359;BME280;52491;45.900;6.346;2023-03-01T06:53:30;93622.66;;;23.31;20.66
65359;BME280;52491;45.900;6.346;2023-03-01T06:55:57;93617.34;;;23.31;20.83
65359;BME280;52491;45.900;6.346;2023-03-01T06:58:24;93621.88;;;23.30;20.51
65359;BME280;52491;45.900;6.346;2023-03-01T07:00:49;93616.56;;;23.30;20.72
65359;BME280;52491;45.900;6.346;2023-03-01T07:03:15;93623.47;;;23.31;20.86
65359;BME280;52491;45.900;6.346;2023-03-01T07:05:41;93625.03;;;23.32;20.89
65359;BME280;52491;45.900;6.346;2023-03-01T07:08:06;93621.59;;;23.32;20.79
65359;BME280;52491;45.900;6.346;2023-03-01T07:10:32;93623.19;;;23.33;20.69
65359;BME280;52491;45.900;6.346;2023-03-01T07:12:58;93619.47;;;23.34;20.89
65359;BME280;52491;45.900;6.346;2023-03-01T07:15:25;93617.38;;;23.36;20.67
65359;BME280;52491;45.900;6.346;2023-03-01T07:17:51;93619.75;;;23.37;20.77
65359;BME280;52491;45.900;6.346;2023-03-01T07:20:18;93609.66;;;23.39;20.89
65359;BME280;52491;45.900;6.346;2023-03-01T07:22:46;93607.00;;;23.39;20.76
65359;BME280;52491;45.900;6.346;2023-03-01T07:25:11;93610.44;;;23.40;20.73
65359;BME280;52491;45.900;6.346;2023-03-01T07:27:37;93606.19;;;23.39;20.89
65359;BME280;52491;45.900;6.346;2023-03-01T07:30:03;93604.59;;;23.38;20.81
65359;BME280;52491;45.900;6.346;2023-03-01T07:32:29;93606.19;;;23.39;20.92
65359;BME280;52491;45.900;6.346;2023-03-01T07:34:54;93606.19;;;23.39;20.71
65359;BME280;52491;45.900;6.346;2023-03-01T07:37:20;93606.44;;;23.37;20.94
65359;BME280;52491;45.900;6.346;2023-03-01T07:39:46;93605.91;;;23.40;20.81
65359;BME280;52491;45.900;6.346;2023-03-01T07:42:11;93603.25;;;23.40;20.83
65359;BME280;52491;45.900;6.346;2023-03-01T07:44:37;93602.47;;;23.40;20.91
65359;BME280;52491;45.900;6.346;2023-03-01T07:47:03;93605.13;;;23.40;20.88
65359;BME280;52491;45.900;6.346;2023-03-01T07:49:29;93607.78;;;23.40;20.88
65359;BME280;52491;45.900;6.346;2023-03-01T07:51:55;93604.06;;;23.41;20.91
65359;BME280;52491;45.900;6.346;2023-03-01T07:54:21;93600.59;;;23.40;20.93
65359;BME280;52491;45.900;6.346;2023-03-01T07:56:47;93607.53;;;23.41;20.97
65359;BME280;52491;45.900;6.346;2023-03-01T07:59:13;93602.22;;;23.41;20.89
65359;BME280;52491;45.900;6.346;2023-03-01T08:01:38;93596.91;;;23.41;20.86
65359;BME280;52491;45.900;6.346;2023-03-01T08:04:04;93599.56;;;23.41;20.82
65359;BME280;52491;45.900;6.346;2023-03-01T08:06:34;93595.03;;;23.42;20.84
65359;BME280;52491;45.900;6.346;2023-03-01T08:09:00;93599.00;;;23.39;20.79
65359;BME280;52491;45.900;6.346;2023-03-01T08:11:25;93596.34;;;23.39;20.94
65359;BME280;52491;45.900;6.346;2023-03-01T08:13:53;93593.69;;;23.39;20.86
65359;BME280;52491;45.900;6.346;2023-03-01T08:16:20;93589.16;;;23.40;20.86
65359;BME280;52491;45.900;6.346;2023-03-01T08:18:45;93581.19;;;23.40;20.93
65359;BME280;52491;45.900;6.346;2023-03-01T08:21:14;93574.78;;;23.41;20.88
65359;BME280;52491;45.900;6.346;2023-03-01T08:23:40;93575.63;;;23.41;20.93
65359;BME280;52491;45.900;6.346;2023-03-01T08:26:15;93575.63;;;23.41;20.92
65359;BME280;52491;45.900;6.346;2023-03-01T08:28:41;93569.47;;;23.41;20.98
65359;BME280;52491;45.900;6.346;2023-03-01T08:31:15;93566.81;;;23.41;20.76
65359;BME280;52491;45.900;6.346;2023-03-01T08:33:41;93572.94;;;23.41;20.94
65359;BME280;52491;45.900;6.346;2023-03-01T08:36:07;93580.94;;;23.41;20.61
65359;BME280;52491;45.900;6.346;2023-03-01T08:38:34;93580.94;;;23.41;20.97
65359;BME280;52491;45.900;6.346;2023-03-01T08:41:01;93581.72;;;23.42;20.92
65359;BME280;52491;45.900;6.346;2023-03-01T08:43:27;93582.53;;;23.42;20.92
65359;BME280;52491;45.900;6.346;2023-03-01T08:45:52;93575.34;;;23.43;20.88
65359;BME280;52491;45.900;6.346;2023-03-01T08:48:18;93570.56;;;23.45;20.79
65359;BME280;52491;45.900;6.346;2023-03-01T08:50:44;93570.56;;;23.45;20.91
65359;BME280;52491;45.900;6.346;2023-03-01T08:53:09;93562.56;;;23.45;20.86
65359;BME280;52491;45.900;6.346;2023-03-01T08:55:35;93576.66;;;23.45;20.96
65359;BME280;52491;45.900;6.346;2023-03-01T08:58:00;93567.91;;;23.45;20.88
65359;BME280;52491;45.900;6.346;2023-03-01T09:00:26;93570.56;;;23.45;21.00
65359;BME280;52491;45.900;6.346;2023-03-01T09:02:51;93576.66;;;23.45;21.02
65359;BME280;52491;45.900;6.346;2023-03-01T09:05:17;93572.94;;;23.46;20.90
65359;BME280;52491;45.900;6.346;2023-03-01T09:07:42;93570.81;;;23.49;20.96
65359;BME280;52491;45.900;6.346;2023-03-01T09:10:09;93573.47;;;23.49;20.93
65359;BME280;52491;45.900;6.346;2023-03-01T09:15:00;93566.28;;;23.49;20.99
65359;BME280;52491;45.900;6.346;2023-03-01T09:17:26;93556.44;;;23.50;20.91
65359;BME280;52491;45.900;6.346;2023-03-01T09:19:51;93554.59;;;23.50;20.82
65359;BME280;52491;45.900;6.346;2023-03-01T09:22:17;93561.50;;;23.51;20.97
65359;BME280;52491;45.900;6.346;2023-03-01T09:24:43;93554.59;;;23.50;20.98
65359;BME280;52491;45.900;6.346;2023-03-01T09:27:08;93552.75;;;23.51;20.90
65359;BME280;52491;45.900;6.346;2023-03-01T09:29:37;93550.06;;;23.51;20.95
65359;BME280;52491;45.900;6.346;2023-03-01T09:32:03;93547.41;;;23.51;21.00
65359;BME280;52491;45.900;6.346;2023-03-01T09:34:29;93544.47;;;23.52;20.61
65359;BME280;52491;45.900;6.346;2023-03-01T09:36:54;93543.16;;;23.55;20.96
65359;BME280;52491;45.900;6.346;2023-03-01T09:39:22;93538.91;;;23.54;21.11
65359;BME280;52491;45.900;6.346;2023-03-01T09:42:01;93540.50;;;23.55;20.85
65359;BME280;52491;45.900;6.346;2023-03-01T09:47:17;93531.16;;;23.52;21.00
65359;BME280;52491;45.900;6.346;2023-03-01T09:49:43;93535.69;;;23.52;20.98
65359;BME280;52491;45.900;6.346;2023-03-01T09:55:37;93527.72;;;23.52;21.06
65359;BME280;52491;45.900;6.346;2023-03-01T09:58:46;93527.72;;;23.52;21.07
65359;BME280;52491;45.900;6.346;2023-03-01T10:06:24;93520.00;;;23.50;21.19
65359;BME280;52491;45.900;6.346;2023-03-01T10:09:04;93514.66;;;23.55;21.06
65359;BME280;52491;45.900;6.346;2023-03-01T10:11:37;93522.66;;;23.55;21.06
65359;BME280;52491;45.900;6.346;2023-03-01T10:14:12;93521.31;;;23.58;21.00
65359;BME280;52491;45.900;6.346;2023-03-01T10:16:50;93513.34;;;23.58;21.25
65359;BME280;52491;45.900;6.346;2023-03-01T10:19:40;93522.94;;;23.59;21.04
65359;BME280;52491;45.900;6.346;2023-03-01T10:22:18;93514.97;;;23.59;21.11
65359;BME280;52491;45.900;6.346;2023-03-01T10:24:47;93514.69;;;23.60;21.11
65359;BME280;52491;45.900;6.346;2023-03-01T10:27:26;93513.34;;;23.63;21.13
65359;BME280;52491;45.900;6.346;2023-03-01T10:32:28;93514.44;;;23.62;21.29
65359;BME280;52491;45.900;6.346;2023-03-01T10:34:54;93511.47;;;23.63;21.18
65359;BME280;52491;45.900;6.346;2023-03-01T10:37:21;93506.69;;;23.65;21.31
65359;BME280;52491;45.900;6.346;2023-03-01T10:40:14;93504.56;;;23.67;21.16
65359;BME280;52491;45.900;6.346;2023-03-01T10:42:48;93497.38;;;23.68;21.13
65359;BME280;52491;45.900;6.346;2023-03-01T10:48:23;93492.59;;;23.70;21.31
65359;BME280;52491;45.900;6.346;2023-03-01T10:56:05;93484.63;;;23.70;21.30
65359;BME280;52491;45.900;6.346;2023-03-01T10:58:32;93479.28;;;23.70;21.46
65359;BME280;52491;45.900;6.346;2023-03-01T11:01:24;93473.72;;;23.72;21.16
65359;BME280;52491;45.900;6.346;2023-03-01T11:06:38;93468.94;;;23.74;21.51
65359;BME280;52491;45.900;6.346;2023-03-01T11:09:19;93466.00;;;23.75;21.32
65359;BME280;52491;45.900;6.346;2023-03-01T11:11:45;93471.34;;;23.75;21.24
65359;BME280;52491;45.900;6.346;2023-03-01T11:14:23;93467.06;;;23.79;21.15
65359;BME280;52491;45.900;6.346;2023-03-01T11:16:59;93465.97;;;23.80;21.03
65359;BME280;52491;45.900;6.346;2023-03-01T11:19:25;93463.84;;;23.82;21.25
65359;BME280;52491;45.900;6.346;2023-03-01T11:24:46;93445.22;;;23.87;20.67
65359;BME280;52491;45.900;6.346;2023-03-01T11:27:19;93439.09;;;23.92;20.21
65359;BME280;52491;45.900;6.346;2023-03-01T11:30:07;93439.09;;;23.92;19.88
65359;BME280;52491;45.900;6.346;2023-03-01T11:35:28;93430.03;;;23.83;19.58
65359;BME280;52491;45.900;6.346;2023-03-01T11:40:32;93417.28;;;23.80;19.56
65359;BME280;52491;45.900;6.346;2023-03-01T11:43:09;93419.16;;;23.79;19.59
65359;BME280;52491;45.900;6.346;2023-03-01T11:51:21;93407.44;;;23.65;18.84
65359;BME280;52491;45.900;6.346;2023-03-01T12:04:47;93386.47;;;23.12;18.41
65359;BME280;52491;45.900;6.346;2023-03-01T12:10:26;93388.56;;;22.90;18.35
65359;BME280;52491;45.900;6.346;2023-03-01T12:21:37;93384.09;;;23.11;18.55
65359;BME280;52491;45.900;6.346;2023-03-01T12:36:18;93355.34;;;23.33;18.25
65359;BME280;52491;45.900;6.346;2023-03-01T12:39:14;93349.22;;;23.38;18.26
65359;BME280;52491;45.900;6.346;2023-03-01T12:42:18;93346.28;;;23.39;18.37
65359;BME280;52491;45.900;6.346;2023-03-01T12:44:57;93354.00;;;23.41;18.35
65359;BME280;52491;45.900;6.346;2023-03-01T12:50:21;93347.88;;;23.45;18.36
65359;BME280;52491;45.900;6.346;2023-03-01T12:52:54;93343.34;;;23.46;18.43
65359;BME280;52491;45.900;6.346;2023-03-01T12:55:31;93330.03;;;23.46;18.47
65359;BME280;52491;45.900;6.346;2023-03-01T13:00:49;93333.25;;;23.48;18.48
65359;BME280;52491;45.900;6.346;2023-03-01T13:03:33;93335.63;;;23.50;18.40
65359;BME280;52491;45.900;6.346;2023-03-01T13:06:21;93333.78;;;23.50;18.53
65359;BME280;52491;45.900;6.346;2023-03-01T13:09:06;93333.50;;;23.52;18.36
65359;BME280;52491;45.900;6.346;2023-03-01T13:11:34;93332.69;;;23.51;18.55
65359;BME280;52491;45.900;6.346;2023-03-01T13:16:56;93321.81;;;23.53;18.53
65359;BME280;52491;45.900;6.346;2023-03-01T13:19:29;93332.16;;;23.54;18.45
65359;BME280;52491;45.900;6.346;2023-03-01T13:21:55;93330.28;;;23.55;18.38
65359;BME280;52491;45.900;6.346;2023-03-01T13:24:28;93327.63;;;23.55;18.46
65359;BME280;52491;45.900;6.346;2023-03-01T13:29:52;93323.09;;;23.55;18.33
65359;BME280;52491;45.900;6.346;2023-03-01T13:34:53;93324.72;;;23.56;18.51
65359;BME280;52491;45.900;6.346;2023-03-01T13:37:22;93316.97;;;23.55;18.49
65359;BME280;52491;45.900;6.346;2023-03-01T13:39:48;93315.41;;;23.54;18.39
65359;BME280;52491;45.900;6.346;2023-03-01T13:42:36;93314.59;;;23.53;18.34
65359;BME280;52491;45.900;6.346;2023-03-01T13:45:05;93314.88;;;23.52;18.23
65359;BME280;52491;45.900;6.346;2023-03-01T13:47:41;93314.06;;;23.51;18.29
65359;BME280;52491;45.900;6.346;2023-03-01T13:50:20;93314.88;;;23.52;18.22
65359;BME280;52491;45.900;6.346;2023-03-01T13:52:51;93315.94;;;23.51;18.29
65359;BME280;52491;45.900;6.346;2023-03-01T13:55:21;93317.00;;;23.50;18.29
65359;BME280;52491;45.900;6.346;2023-03-01T13:57:51;93316.19;;;23.49;18.29
65359;BME280;52491;45.900;6.346;2023-03-01T14:00:37;93315.16;;;23.50;18.19
65359;BME280;52491;45.900;6.346;2023-03-01T14:03:15;93314.06;;;23.51;18.33
65359;BME280;52491;45.900;6.346;2023-03-01T14:06:05;93317.00;;;23.50;18.00
65359;BME280;52491;45.900;6.346;2023-03-01T14:08:33;93313.28;;;23.51;18.39
65359;BME280;52491;45.900;6.346;2023-03-01T14:16:20;93312.75;;;23.49;18.34
65359;BME280;52491;45.900;6.346;2023-03-01T14:21:33;93314.88;;;23.52;18.33
65359;BME280;52491;45.900;6.346;2023-03-01T14:24:00;93314.88;;;23.52;18.35
65359;BME280;52491;45.900;6.346;2023-03-01T14:26:26;93320.47;;;23.50;18.31
65359;BME280;52491;45.900;6.346;2023-03-01T14:28:51;93318.59;;;23.51;18.23
65359;BME280;52491;45.900;6.346;2023-03-01T14:31:36;93324.97;;;23.50;18.23
65359;BME280;52491;45.900;6.346;2023-03-01T14:34:02;93322.31;;;23.50;18.24
65359;BME280;52491;45.900;6.346;2023-03-01T14:36:33;93327.91;;;23.48;18.19
65359;BME280;52491;45.900;6.346;2023-03-01T14:38:59;93325.81;;;23.40;18.39
65359;BME280;52491;45.900;6.346;2023-03-01T14:41:33;93319.44;;;23.36;18.43
65359;BME280;52491;45.900;6.346;2023-03-01T14:44:14;93325.81;;;23.35;18.31
65359;BME280;52491;45.900;6.346;2023-03-01T14:46:41;93323.44;;;23.33;18.28
65359;BME280;52491;45.900;6.346;2023-03-01T14:49:21;93330.09;;;23.31;18.27
65359;BME280;52491;45.900;6.346;2023-03-01T14:52:03;93327.44;;;23.31;18.44
65359;BME280;52491;45.900;6.346;2023-03-01T14:54:44;93322.13;;;23.31;18.50
65359;BME280;52491;45.900;6.346;2023-03-01T14:57:23;93319.69;;;23.29;18.33
65359;BME280;52491;45.900;6.346;2023-03-01T14:59:51;93322.91;;;23.26;18.43
65359;BME280;52491;45.900;6.346;2023-03-01T15:02:22;93331.69;;;23.27;18.45
65359;BME280;52491;45.900;6.346;2023-03-01T15:04:51;93340.72;;;23.26;18.35
65359;BME280;52491;45.900;6.346;2023-03-01T15:07:18;93345.25;;;23.25;18.51